createdAt,value
2018-05-11T00:00:08.648Z,1018.29
2018-05-11T00:01:36.026Z,1018.29
2018-05-11T00:03:03.533Z,1018.28
2018-05-11T00:04:30.789Z,1018.30
2018-05-11T00:05:58.043Z,1018.34
2018-05-11T00:07:25.570Z,1018.40
2018-05-11T00:08:52.941Z,1018.41
2018-05-11T00:10:20.574Z,1018.41
2018-05-11T00:11:48.013Z,1018.38
2018-05-11T00:13:15.456Z,1018.39
2018-05-11T00:14:42.807Z,1018.40
2018-05-11T00:16:10.113Z,1018.41
2018-05-11T00:17:37.469Z,1018.42
2018-05-11T00:19:04.834Z,1018.41
2018-05-11T00:20:32.247Z,1018.43
2018-05-11T00:22:02.792Z,1018.46
2018-05-11T00:23:26.905Z,1018.46
2018-05-11T00:24:54.291Z,1018.47
2018-05-11T00:26:21.620Z,1018.44
2018-05-11T00:27:48.871Z,1018.48
2018-05-11T00:29:16.138Z,1018.50
2018-05-11T00:30:43.429Z,1018.53
2018-05-11T00:32:10.864Z,1018.57
2018-05-11T00:33:38.169Z,1018.61
2018-05-11T00:35:05.523Z,1018.63
2018-05-11T00:36:32.909Z,1018.65
2018-05-11T00:38:00.054Z,1018.65
2018-05-11T00:39:27.557Z,1018.69
2018-05-11T00:40:54.561Z,1018.71
2018-05-11T00:42:21.812Z,1018.70
2018-05-11T00:43:48.938Z,1018.76
2018-05-11T00:45:16.431Z,1018.78
2018-05-11T00:46:43.552Z,1018.80
2018-05-11T00:48:10.811Z,1018.77
2018-05-11T00:49:38.393Z,1018.82
2018-05-11T00:51:05.568Z,1018.85
2018-05-11T00:52:32.935Z,1018.85
2018-05-11T00:54:00.389Z,1018.88
2018-05-11T00:55:27.234Z,1018.91
2018-05-11T00:56:54.650Z,1018.97
2018-05-11T00:58:21.860Z,1018.98
2018-05-11T00:59:49.478Z,1019.03
2018-05-11T01:01:16.776Z,1019.05
2018-05-11T01:02:44.232Z,1019.10
2018-05-11T01:04:11.527Z,1019.13
2018-05-11T01:05:38.791Z,1019.18
2018-05-11T01:07:06.024Z,1019.21
2018-05-11T01:08:33.365Z,1019.23
2018-05-11T01:10:00.594Z,1019.25
2018-05-11T01:11:27.931Z,1019.29
2018-05-11T01:12:55.222Z,1019.29
2018-05-11T01:14:22.758Z,1019.29
2018-05-11T01:15:50.194Z,1019.29
2018-05-11T01:17:17.791Z,1019.34
2018-05-11T01:18:44.989Z,1019.38
2018-05-11T01:20:12.372Z,1019.43
2018-05-11T01:21:39.661Z,1019.50
2018-05-11T01:23:07.163Z,1019.50
2018-05-11T01:24:34.450Z,1019.57
2018-05-11T01:26:01.854Z,1019.58
2018-05-11T01:27:29.162Z,1019.60
2018-05-11T01:28:56.461Z,1019.61
2018-05-11T01:30:23.628Z,1019.64
2018-05-11T01:31:50.712Z,1019.66
2018-05-11T01:33:18.326Z,1019.70
2018-05-11T01:34:45.696Z,1019.73
2018-05-11T01:36:13.197Z,1019.75
2018-05-11T01:37:40.467Z,1019.78
2018-05-11T01:39:07.634Z,1019.78
2018-05-11T01:40:35.232Z,1019.78
2018-05-11T01:42:02.567Z,1019.79
2018-05-11T01:43:29.897Z,1019.75
2018-05-11T01:44:57.141Z,1019.73
2018-05-11T01:46:24.476Z,1019.74
2018-05-11T01:47:51.569Z,1019.77
2018-05-11T01:49:19.048Z,1019.82
2018-05-11T01:50:46.507Z,1019.86
2018-05-11T01:52:13.802Z,1019.85
2018-05-11T01:53:40.949Z,1019.87
2018-05-11T01:55:08.345Z,1019.88
2018-05-11T01:56:35.683Z,1019.89
2018-05-11T01:58:03.066Z,1019.93
2018-05-11T01:59:30.401Z,1019.94
2018-05-11T02:00:57.810Z,1019.96
2018-05-11T02:02:25.250Z,1019.95
2018-05-11T02:03:52.806Z,1019.98
2018-05-11T02:05:20.055Z,1019.98
2018-05-11T02:06:47.561Z,1019.99
2018-05-11T02:08:14.920Z,1019.98
2018-05-11T02:09:42.371Z,1019.99
2018-05-11T02:11:09.709Z,1020.01
2018-05-11T02:12:36.968Z,1020.06
2018-05-11T02:14:04.266Z,1020.10
2018-05-11T02:15:31.509Z,1020.14
2018-05-11T02:16:58.845Z,1020.16
2018-05-11T02:18:26.052Z,1020.15
2018-05-11T02:19:53.342Z,1020.19
2018-05-11T02:21:20.980Z,1020.19
2018-05-11T02:22:48.249Z,1020.20
2018-05-11T02:24:15.805Z,1020.20
2018-05-11T02:25:43.215Z,1020.19
2018-05-11T02:27:10.410Z,1020.19
2018-05-11T02:28:37.723Z,1020.19
2018-05-11T02:30:05.050Z,1020.24
2018-05-11T02:31:32.317Z,1020.24
2018-05-11T02:32:59.710Z,1020.28
2018-05-11T02:34:26.869Z,1020.33
2018-05-11T02:35:54.401Z,1020.36
2018-05-11T02:37:21.360Z,1020.40
2018-05-11T02:38:48.899Z,1020.40
2018-05-11T02:40:16.057Z,1020.48
2018-05-11T02:41:43.504Z,1020.51
2018-05-11T02:43:10.747Z,1020.53
2018-05-11T02:44:38.078Z,1020.58
2018-05-11T02:46:05.285Z,1020.59
2018-05-11T02:47:32.740Z,1020.63
2018-05-11T02:49:00.076Z,1020.67
2018-05-11T02:50:27.326Z,1020.69
2018-05-11T02:51:54.328Z,1020.73
2018-05-11T02:53:21.719Z,1020.73
2018-05-11T02:54:49.142Z,1020.73
2018-05-11T02:56:16.696Z,1020.72
2018-05-11T02:57:44.035Z,1020.76
2018-05-11T02:59:11.501Z,1020.76
2018-05-11T03:00:39.138Z,1020.77
2018-05-11T03:02:06.370Z,1020.76
2018-05-11T03:03:33.748Z,1020.79
2018-05-11T03:05:00.976Z,1020.78
2018-05-11T03:06:28.257Z,1020.83
2018-05-11T03:07:55.610Z,1020.83
2018-05-11T03:09:22.841Z,1020.84
2018-05-11T03:10:50.104Z,1020.83
2018-05-11T03:12:17.440Z,1020.86
2018-05-11T03:13:44.748Z,1020.91
2018-05-11T03:15:12.205Z,1020.93
2018-05-11T03:16:39.545Z,1020.96
2018-05-11T03:18:06.839Z,1020.98
2018-05-11T03:19:34.289Z,1021.02
2018-05-11T03:21:01.305Z,1021.04
2018-05-11T03:22:28.610Z,1021.06
2018-05-11T03:23:56.276Z,1021.12
2018-05-11T03:25:23.681Z,1021.14
2018-05-11T03:26:51.108Z,1021.15
2018-05-11T03:28:19.516Z,1021.21
2018-05-11T03:29:45.869Z,1021.24
2018-05-11T03:31:13.201Z,1021.30
2018-05-11T03:32:40.442Z,1021.33
2018-05-11T03:34:07.799Z,1021.34
2018-05-11T03:35:35.300Z,1021.36
2018-05-11T03:37:02.672Z,1021.38
2018-05-11T03:38:29.914Z,1021.40
2018-05-11T03:39:57.188Z,1021.42
2018-05-11T03:41:24.368Z,1021.48
2018-05-11T03:42:51.705Z,1021.51
2018-05-11T03:44:18.995Z,1021.50
2018-05-11T03:45:46.304Z,1021.50
2018-05-11T03:47:13.662Z,1021.54
2018-05-11T03:48:41.054Z,1021.54
2018-05-11T03:50:08.535Z,1021.55
2018-05-11T03:51:35.943Z,1021.56
2018-05-11T03:53:03.276Z,1021.55
2018-05-11T03:54:30.592Z,1021.57
2018-05-11T03:55:57.944Z,1021.59
2018-05-11T03:57:25.206Z,1021.59
2018-05-11T03:58:52.588Z,1021.61
2018-05-11T04:00:19.926Z,1021.62
2018-05-11T04:01:47.413Z,1021.62
2018-05-11T04:03:14.866Z,1021.64
2018-05-11T04:04:42.233Z,1021.69
2018-05-11T04:06:09.637Z,1021.70
2018-05-11T04:07:37.012Z,1021.74
2018-05-11T04:09:04.392Z,1021.75
2018-05-11T04:10:31.806Z,1021.76
2018-05-11T04:11:59.050Z,1021.78
2018-05-11T04:13:26.275Z,1021.79
2018-05-11T04:14:53.571Z,1021.83
2018-05-11T04:16:21.010Z,1021.82
2018-05-11T04:17:48.475Z,1021.82
2018-05-11T04:19:15.451Z,1021.83
2018-05-11T04:20:43.045Z,1021.86
2018-05-11T04:22:10.331Z,1021.88
2018-05-11T04:23:37.976Z,1021.91
2018-05-11T04:25:05.267Z,1021.88
2018-05-11T04:26:32.614Z,1021.86
2018-05-11T04:27:59.747Z,1021.87
2018-05-11T04:29:27.099Z,1021.86
2018-05-11T04:30:54.095Z,1021.88
2018-05-11T04:32:21.589Z,1021.86
2018-05-11T04:33:49.032Z,1021.90
2018-05-11T04:35:16.556Z,1021.91
2018-05-11T04:36:43.723Z,1021.96
2018-05-11T04:38:11.252Z,1021.97
2018-05-11T04:39:38.697Z,1022.00
2018-05-11T04:41:06.157Z,1022.01
2018-05-11T04:42:33.531Z,1022.02
2018-05-11T04:44:00.903Z,1022.02
2018-05-11T04:45:28.087Z,1022.04
2018-05-11T04:46:55.534Z,1022.05
2018-05-11T04:48:22.944Z,1022.06
2018-05-11T04:49:50.311Z,1022.08
2018-05-11T04:51:17.685Z,1022.09
2018-05-11T04:52:44.943Z,1022.11
2018-05-11T04:54:12.186Z,1022.12
2018-05-11T04:55:39.647Z,1022.13
2018-05-11T04:57:06.886Z,1022.14
2018-05-11T04:58:34.291Z,1022.14
2018-05-11T05:00:01.563Z,1022.15
2018-05-11T05:01:28.885Z,1022.17
2018-05-11T05:02:56.374Z,1022.19
2018-05-11T05:04:23.591Z,1022.21
2018-05-11T05:05:50.917Z,1022.23
2018-05-11T05:07:18.336Z,1022.23
2018-05-11T05:08:45.972Z,1022.23
2018-05-11T05:10:13.246Z,1022.21
2018-05-11T05:11:40.540Z,1022.18
2018-05-11T05:13:07.958Z,1022.14
2018-05-11T05:14:35.468Z,1022.13
2018-05-11T05:16:02.821Z,1022.14
2018-05-11T05:17:30.121Z,1022.13
2018-05-11T05:18:57.540Z,1022.16
2018-05-11T05:20:24.844Z,1022.18
2018-05-11T05:21:52.145Z,1022.21
2018-05-11T05:23:19.462Z,1022.24
2018-05-11T05:24:46.785Z,1022.25
2018-05-11T05:26:14.279Z,1022.30
2018-05-11T05:27:41.268Z,1022.31
2018-05-11T05:29:08.733Z,1022.33
2018-05-11T05:30:35.959Z,1022.31
2018-05-11T05:32:03.376Z,1022.31
2018-05-11T05:33:30.774Z,1022.32
2018-05-11T05:34:58.099Z,1022.34
2018-05-11T05:36:25.338Z,1022.34
2018-05-11T05:37:52.836Z,1022.35
2018-05-11T05:39:20.258Z,1022.36
2018-05-11T05:40:47.680Z,1022.35
2018-05-11T05:42:14.936Z,1022.34
2018-05-11T05:43:42.280Z,1022.33
2018-05-11T05:45:09.665Z,1022.33
2018-05-11T05:46:37.135Z,1022.32
2018-05-11T05:48:04.499Z,1022.31
2018-05-11T05:49:31.856Z,1022.28
2018-05-11T05:50:59.318Z,1022.28
2018-05-11T05:52:26.383Z,1022.25
2018-05-11T05:53:53.909Z,1022.23
2018-05-11T05:55:21.422Z,1022.22
2018-05-11T05:56:48.606Z,1022.25
2018-05-11T05:58:15.865Z,1022.30
2018-05-11T05:59:43.441Z,1022.33
2018-05-11T06:01:10.762Z,1022.38
2018-05-11T06:02:37.951Z,1022.42
2018-05-11T06:04:05.442Z,1022.45
2018-05-11T06:05:32.702Z,1022.49
2018-05-11T06:07:00.154Z,1022.52
2018-05-11T06:08:27.516Z,1022.54
2018-05-11T06:09:54.969Z,1022.56
2018-05-11T06:11:22.183Z,1022.57
2018-05-11T06:12:49.476Z,1022.57
2018-05-11T06:14:16.833Z,1022.57
2018-05-11T06:15:44.193Z,1022.59
2018-05-11T06:17:11.524Z,1022.59
2018-05-11T06:18:38.894Z,1022.60
2018-05-11T06:20:06.244Z,1022.61
2018-05-11T06:21:33.557Z,1022.62
2018-05-11T06:23:01.064Z,1022.61
2018-05-11T06:24:28.227Z,1022.63
2018-05-11T06:25:55.623Z,1022.64
2018-05-11T06:27:22.972Z,1022.64
2018-05-11T06:28:50.387Z,1022.63
2018-05-11T06:30:17.840Z,1022.58
2018-05-11T06:31:45.151Z,1022.59
2018-05-11T06:33:15.505Z,1022.58
2018-05-11T06:34:39.908Z,1022.55
2018-05-11T06:36:07.418Z,1022.54
2018-05-11T06:37:34.732Z,1022.52
2018-05-11T06:39:01.999Z,1022.53
2018-05-11T06:40:29.413Z,1022.52
2018-05-11T06:41:56.591Z,1022.53
2018-05-11T06:43:23.466Z,1022.51
2018-05-11T06:44:50.863Z,1022.51
2018-05-11T06:46:18.265Z,1022.50
2018-05-11T06:47:45.747Z,1022.49
2018-05-11T06:49:13.145Z,1022.53
2018-05-11T06:50:40.097Z,1022.56
2018-05-11T06:52:07.485Z,1022.58
2018-05-11T06:53:34.841Z,1022.59
2018-05-11T06:55:02.347Z,1022.55
2018-05-11T06:56:29.805Z,1022.57
2018-05-11T06:57:57.110Z,1022.56
2018-05-11T06:59:24.364Z,1022.54
2018-05-11T07:00:51.883Z,1022.57
2018-05-11T07:02:19.302Z,1022.61
2018-05-11T07:03:46.817Z,1022.67
2018-05-11T07:05:14.129Z,1022.65
2018-05-11T07:06:41.599Z,1022.68
2018-05-11T07:08:09.111Z,1022.67
2018-05-11T07:09:36.381Z,1022.64
2018-05-11T07:11:03.582Z,1022.64
2018-05-11T07:12:30.952Z,1022.63
2018-05-11T07:13:58.374Z,1022.63
2018-05-11T07:15:25.622Z,1022.62
2018-05-11T07:16:53.076Z,1022.64
2018-05-11T07:18:20.583Z,1022.63
2018-05-11T07:19:47.643Z,1022.63
2018-05-11T07:21:15.123Z,1022.64
2018-05-11T07:22:42.619Z,1022.63
2018-05-11T07:24:10.026Z,1022.60
2018-05-11T07:25:37.368Z,1022.63
2018-05-11T07:27:04.608Z,1022.62
2018-05-11T07:28:32.014Z,1022.61
2018-05-11T07:29:59.123Z,1022.63
2018-05-11T07:31:26.261Z,1022.66
2018-05-11T07:32:53.625Z,1022.66
2018-05-11T07:34:21.143Z,1022.66
2018-05-11T07:35:48.642Z,1022.66
2018-05-11T07:37:15.866Z,1022.66
2018-05-11T07:38:43.358Z,1022.65
2018-05-11T07:40:10.659Z,1022.63
2018-05-11T07:41:38.221Z,1022.65
2018-05-11T07:43:05.674Z,1022.69
2018-05-11T07:44:32.894Z,1022.65
2018-05-11T07:46:00.252Z,1022.64
2018-05-11T07:47:27.882Z,1022.63
2018-05-11T07:48:54.999Z,1022.65
2018-05-11T07:50:22.640Z,1022.67
2018-05-11T07:51:49.837Z,1022.69
2018-05-11T07:53:17.531Z,1022.67
2018-05-11T07:54:44.804Z,1022.69
2018-05-11T07:56:12.113Z,1022.69
2018-05-11T07:57:39.629Z,1022.66
2018-05-11T07:59:06.817Z,1022.67
2018-05-11T08:00:34.283Z,1022.69
2018-05-11T08:02:01.583Z,1022.65
2018-05-11T08:03:29.074Z,1022.68
2018-05-11T08:04:56.178Z,1022.72
2018-05-11T08:06:23.385Z,1022.71
2018-05-11T08:07:50.650Z,1022.71
2018-05-11T08:09:18.215Z,1022.69
2018-05-11T08:10:45.633Z,1022.71
2018-05-11T08:12:12.904Z,1022.70
2018-05-11T08:13:40.254Z,1022.68
2018-05-11T08:15:07.689Z,1022.65
2018-05-11T08:16:34.940Z,1022.64
2018-05-11T08:18:02.184Z,1022.66
2018-05-11T08:19:29.504Z,1022.66
2018-05-11T08:20:56.802Z,1022.65
2018-05-11T08:22:24.284Z,1022.63
2018-05-11T08:23:51.746Z,1022.63
2018-05-11T08:25:19.079Z,1022.62
2018-05-11T08:26:46.689Z,1022.62
2018-05-11T08:28:14.179Z,1022.63
2018-05-11T08:29:41.431Z,1022.64
2018-05-11T08:31:08.929Z,1022.71
2018-05-11T08:32:36.548Z,1022.76
2018-05-11T08:34:03.831Z,1022.75
2018-05-11T08:35:31.270Z,1022.75
2018-05-11T08:36:58.618Z,1022.80
2018-05-11T08:38:26.164Z,1022.84
2018-05-11T08:39:53.601Z,1022.85
2018-05-11T08:41:20.900Z,1022.86
2018-05-11T08:42:48.214Z,1022.88
2018-05-11T08:44:15.807Z,1022.86
2018-05-11T08:45:43.027Z,1022.88
2018-05-11T08:47:10.486Z,1022.90
2018-05-11T08:48:37.845Z,1022.89
2018-05-11T08:50:05.339Z,1022.91
2018-05-11T08:51:32.700Z,1022.91
2018-05-11T08:53:00.219Z,1022.91
2018-05-11T08:54:27.572Z,1022.94
2018-05-11T08:55:54.909Z,1022.93
2018-05-11T08:57:22.107Z,1022.95
2018-05-11T08:58:49.555Z,1022.92
2018-05-11T09:00:16.972Z,1022.92
2018-05-11T09:01:44.465Z,1022.94
2018-05-11T09:03:11.987Z,1022.96
2018-05-11T09:04:39.417Z,1022.95
2018-05-11T09:06:06.806Z,1022.98
2018-05-11T09:07:34.436Z,1023.01
2018-05-11T09:09:01.692Z,1023.01
2018-05-11T09:10:28.871Z,1023.02
2018-05-11T09:11:59.150Z,1023.02
2018-05-11T09:13:23.434Z,1023.05
2018-05-11T09:14:50.893Z,1023.03
2018-05-11T09:16:18.289Z,1022.99
2018-05-11T09:17:45.700Z,1022.99
2018-05-11T09:19:13.106Z,1022.98
2018-05-11T09:20:40.601Z,1022.99
2018-05-11T09:22:17.881Z,1023.01
2018-05-11T09:23:45.341Z,1022.99
2018-05-11T09:25:12.756Z,1023.00
2018-05-11T09:26:39.991Z,1023.03
2018-05-11T09:28:07.541Z,1023.00
2018-05-11T09:29:35.044Z,1022.99
2018-05-11T09:31:02.414Z,1022.97
2018-05-11T09:32:30.000Z,1022.91
2018-05-11T09:33:57.480Z,1022.90
2018-05-11T09:35:24.876Z,1022.92
2018-05-11T09:36:52.399Z,1022.95
2018-05-11T09:38:19.703Z,1022.94
2018-05-11T09:39:47.275Z,1022.95
2018-05-11T09:41:14.631Z,1022.90
2018-05-11T09:42:41.984Z,1022.89
2018-05-11T09:44:09.357Z,1022.88
2018-05-11T09:45:36.996Z,1022.86
2018-05-11T09:47:04.490Z,1022.94
2018-05-11T09:48:32.114Z,1022.97
2018-05-11T09:49:59.328Z,1023.01
2018-05-11T09:51:26.755Z,1023.07
2018-05-11T09:52:54.200Z,1023.07
2018-05-11T09:54:21.597Z,1023.10
2018-05-11T09:55:49.138Z,1023.14
2018-05-11T09:57:16.654Z,1023.14
2018-05-11T09:58:44.213Z,1023.12
2018-05-11T10:00:11.502Z,1023.15
2018-05-11T10:01:38.885Z,1023.18
2018-05-11T10:03:06.421Z,1023.20
2018-05-11T10:04:33.676Z,1023.21
2018-05-11T10:06:01.118Z,1023.19
2018-05-11T10:07:28.664Z,1023.21
2018-05-11T10:08:56.018Z,1023.18
2018-05-11T10:10:23.608Z,1023.18
2018-05-11T10:11:50.856Z,1023.13
2018-05-11T10:13:18.368Z,1023.09
2018-05-11T10:14:45.663Z,1023.10
2018-05-11T10:16:13.261Z,1023.09
2018-05-11T10:17:40.646Z,1023.10
2018-05-11T10:19:08.074Z,1023.13
2018-05-11T10:20:35.393Z,1023.13
2018-05-11T10:22:02.993Z,1023.12
2018-05-11T10:23:30.491Z,1023.12
2018-05-11T10:24:58.022Z,1023.12
2018-05-11T10:26:25.426Z,1023.15
2018-05-11T10:27:52.997Z,1023.13
2018-05-11T10:29:20.681Z,1023.13
2018-05-11T10:30:48.070Z,1023.09
2018-05-11T10:32:15.384Z,1023.06
2018-05-11T10:33:42.986Z,1023.09
2018-05-11T10:35:10.492Z,1023.06
2018-05-11T10:36:38.012Z,1023.10
2018-05-11T10:38:05.576Z,1023.09
2018-05-11T10:39:32.916Z,1023.08
2018-05-11T10:41:00.418Z,1023.10
2018-05-11T10:42:27.775Z,1023.10
2018-05-11T10:43:55.193Z,1023.12
2018-05-11T10:45:22.531Z,1023.11
2018-05-11T10:46:50.158Z,1023.13
2018-05-11T10:48:17.829Z,1023.17
2018-05-11T10:49:45.276Z,1023.20
2018-05-11T10:51:12.851Z,1023.21
2018-05-11T10:52:40.183Z,1023.19
2018-05-11T10:54:07.568Z,1023.22
2018-05-11T10:55:35.099Z,1023.18
2018-05-11T10:57:02.625Z,1023.15
2018-05-11T10:58:29.998Z,1023.15
2018-05-11T10:59:57.262Z,1023.11
2018-05-11T11:01:24.750Z,1023.09
2018-05-11T11:02:52.207Z,1023.15
2018-05-11T11:04:19.672Z,1023.16
2018-05-11T11:05:47.406Z,1023.16
2018-05-11T11:07:14.861Z,1023.14
2018-05-11T11:08:42.380Z,1023.16
2018-05-11T11:10:09.811Z,1023.13
2018-05-11T11:11:37.253Z,1023.16
2018-05-11T11:13:04.599Z,1023.18
2018-05-11T11:14:32.293Z,1023.15
2018-05-11T11:15:59.759Z,1023.15
2018-05-11T11:17:27.090Z,1023.15
2018-05-11T11:18:54.606Z,1023.14
2018-05-11T11:20:22.211Z,1023.16
2018-05-11T11:21:49.653Z,1023.13
2018-05-11T11:23:17.151Z,1023.12
2018-05-11T11:24:44.809Z,1023.12
2018-05-11T11:26:12.189Z,1023.08
2018-05-11T11:27:39.662Z,1023.05
2018-05-11T11:29:07.130Z,1023.11
2018-05-11T11:30:34.684Z,1023.11
2018-05-11T11:32:02.100Z,1023.13
2018-05-11T11:33:29.569Z,1023.14
2018-05-11T11:34:56.910Z,1023.09
2018-05-11T11:36:24.368Z,1023.05
2018-05-11T11:37:51.764Z,1023.04
2018-05-11T11:39:19.311Z,1023.02
2018-05-11T11:40:46.766Z,1023.03
2018-05-11T11:42:14.398Z,1023.00
2018-05-11T11:43:41.531Z,1023.00
2018-05-11T11:45:09.180Z,1022.99
2018-05-11T11:46:36.748Z,1023.03
2018-05-11T11:48:04.260Z,1023.03
2018-05-11T11:49:31.593Z,1022.98
2018-05-11T11:50:59.020Z,1022.98
2018-05-11T11:52:26.538Z,1022.98
2018-05-11T11:53:54.047Z,1022.96
2018-05-11T11:55:21.526Z,1022.94
2018-05-11T11:56:49.214Z,1022.92
2018-05-11T11:58:16.771Z,1022.90
2018-05-11T11:59:44.217Z,1022.91
2018-05-11T12:01:11.701Z,1022.90
2018-05-11T12:02:39.401Z,1022.87
2018-05-11T12:04:06.995Z,1022.85
2018-05-11T12:05:34.580Z,1022.83
2018-05-11T12:07:01.970Z,1022.86
2018-05-11T12:08:29.537Z,1022.78
2018-05-11T12:09:57.026Z,1022.80
2018-05-11T12:11:24.463Z,1022.81
2018-05-11T12:12:51.897Z,1022.82
2018-05-11T12:14:19.444Z,1022.82
2018-05-11T12:15:47.172Z,1022.82
2018-05-11T12:17:14.344Z,1022.87
2018-05-11T12:18:41.860Z,1022.88
2018-05-11T12:20:09.344Z,1022.82
2018-05-11T12:21:36.841Z,1022.82
2018-05-11T12:23:04.224Z,1022.82
2018-05-11T12:24:31.743Z,1022.82
2018-05-11T12:25:59.250Z,1022.85
2018-05-11T12:27:26.707Z,1022.84
2018-05-11T12:28:54.187Z,1022.87
2018-05-11T12:30:21.603Z,1022.88
2018-05-11T12:31:49.298Z,1022.91
2018-05-11T12:33:16.961Z,1022.93
2018-05-11T12:34:44.385Z,1022.88
2018-05-11T12:36:12.031Z,1022.90
2018-05-11T12:37:39.549Z,1022.91
2018-05-11T12:39:06.977Z,1022.87
2018-05-11T12:40:34.387Z,1022.86
2018-05-11T12:42:02.051Z,1022.83
2018-05-11T12:43:29.453Z,1022.83
2018-05-11T12:44:56.799Z,1022.84
2018-05-11T12:46:24.467Z,1022.85
2018-05-11T12:47:51.997Z,1022.84
2018-05-11T12:49:19.654Z,1022.81
2018-05-11T12:50:47.148Z,1022.82
2018-05-11T12:52:14.832Z,1022.79
2018-05-11T12:53:42.433Z,1022.79
2018-05-11T12:55:09.988Z,1022.78
2018-05-11T12:56:37.533Z,1022.81
2018-05-11T12:58:04.942Z,1022.83
2018-05-11T12:59:32.490Z,1022.83
2018-05-11T13:00:59.904Z,1022.82
2018-05-11T13:02:27.257Z,1022.76
2018-05-11T13:03:54.850Z,1022.80
2018-05-11T13:05:22.294Z,1022.86
2018-05-11T13:06:49.861Z,1022.89
2018-05-11T13:08:17.336Z,1022.84
2018-05-11T13:09:44.871Z,1022.83
2018-05-11T13:11:12.241Z,1022.84
2018-05-11T13:12:40.069Z,1022.84
2018-05-11T13:14:07.658Z,1022.81
2018-05-11T13:15:35.062Z,1022.81
2018-05-11T13:17:02.569Z,1022.81
2018-05-11T13:18:30.010Z,1022.82
2018-05-11T13:19:57.321Z,1022.84
2018-05-11T13:21:24.789Z,1022.84
2018-05-11T13:22:52.159Z,1022.82
2018-05-11T13:24:19.627Z,1022.80
2018-05-11T13:25:47.085Z,1022.80
2018-05-11T13:27:14.771Z,1022.81
2018-05-11T13:28:42.341Z,1022.80
2018-05-11T13:30:09.687Z,1022.81
2018-05-11T13:31:37.285Z,1022.80
2018-05-11T13:33:04.711Z,1022.79
2018-05-11T13:34:32.210Z,1022.76
2018-05-11T13:35:59.606Z,1022.79
2018-05-11T13:37:26.883Z,1022.81
2018-05-11T13:38:54.497Z,1022.83
2018-05-11T13:40:22.106Z,1022.84
2018-05-11T13:41:49.575Z,1022.85
2018-05-11T13:43:17.232Z,1022.86
2018-05-11T13:44:44.581Z,1022.88
2018-05-11T13:46:12.219Z,1022.89
2018-05-11T13:47:39.504Z,1022.92
2018-05-11T13:49:07.008Z,1022.91
2018-05-11T13:50:34.609Z,1022.90
2018-05-11T13:52:01.921Z,1022.92
2018-05-11T13:53:29.375Z,1022.85
2018-05-11T13:54:56.700Z,1022.82
2018-05-11T13:56:24.218Z,1022.84
2018-05-11T13:57:51.674Z,1022.82
2018-05-11T13:59:19.422Z,1022.84
2018-05-11T14:00:46.998Z,1022.83
2018-05-11T14:02:14.426Z,1022.82
2018-05-11T14:03:41.831Z,1022.84
2018-05-11T14:05:09.569Z,1022.83
2018-05-11T14:06:37.072Z,1022.85
2018-05-11T14:08:04.528Z,1022.88
2018-05-11T14:09:31.841Z,1022.86
2018-05-11T14:10:59.180Z,1022.88
2018-05-11T14:12:26.411Z,1022.89
2018-05-11T14:13:53.705Z,1022.88
2018-05-11T14:15:21.252Z,1022.90
2018-05-11T14:16:48.857Z,1022.86
2018-05-11T14:18:16.428Z,1022.85
2018-05-11T14:19:43.673Z,1022.87
2018-05-11T14:21:11.265Z,1022.91
2018-05-11T14:22:38.651Z,1022.91
2018-05-11T14:24:06.280Z,1022.88
2018-05-11T14:25:33.654Z,1022.92
2018-05-11T14:27:01.134Z,1022.91
2018-05-11T14:28:28.615Z,1022.94
2018-05-11T14:29:56.075Z,1022.93
2018-05-11T14:31:23.569Z,1022.94
2018-05-11T14:32:50.974Z,1023.00
2018-05-11T14:34:18.534Z,1023.01
2018-05-11T14:35:45.982Z,1023.01
2018-05-11T14:37:13.662Z,1023.02
2018-05-11T14:38:41.035Z,1023.02
2018-05-11T14:40:08.627Z,1023.01
2018-05-11T14:41:36.117Z,1022.99
2018-05-11T14:43:03.547Z,1022.97
2018-05-11T14:44:30.983Z,1022.96
2018-05-11T14:45:58.455Z,1022.95
2018-05-11T14:47:25.961Z,1022.94
2018-05-11T14:48:53.287Z,1022.92
2018-05-11T14:50:20.628Z,1022.93
2018-05-11T14:51:48.187Z,1022.92
2018-05-11T14:53:15.720Z,1022.91
2018-05-11T14:54:43.214Z,1022.92
2018-05-11T14:56:10.665Z,1022.92
2018-05-11T14:57:38.169Z,1022.89
2018-05-11T14:59:05.383Z,1022.84
2018-05-11T15:00:32.950Z,1022.84
2018-05-11T15:02:00.271Z,1022.87
2018-05-11T15:03:27.457Z,1022.91
2018-05-11T15:04:55.161Z,1022.84
2018-05-11T15:06:22.663Z,1022.84
2018-05-11T15:07:50.248Z,1022.83
2018-05-11T15:09:17.798Z,1022.83
2018-05-11T15:10:45.265Z,1022.85
2018-05-11T15:12:12.845Z,1022.85
2018-05-11T15:13:40.128Z,1022.84
2018-05-11T15:15:07.548Z,1022.80
2018-05-11T15:16:34.981Z,1022.80
2018-05-11T15:18:02.448Z,1022.77
2018-05-11T15:19:30.002Z,1022.76
2018-05-11T15:20:57.187Z,1022.75
2018-05-11T15:22:24.770Z,1022.71
2018-05-11T15:23:52.143Z,1022.70
2018-05-11T15:25:19.691Z,1022.71
2018-05-11T15:26:46.928Z,1022.70
2018-05-11T15:28:14.410Z,1022.73
2018-05-11T15:29:42.002Z,1022.72
2018-05-11T15:31:09.523Z,1022.74
2018-05-11T15:32:36.803Z,1022.71
2018-05-11T15:34:04.317Z,1022.73
2018-05-11T15:35:31.625Z,1022.71
2018-05-11T15:36:59.240Z,1022.71
2018-05-11T15:38:26.437Z,1022.73
2018-05-11T15:39:53.947Z,1022.74
2018-05-11T15:41:21.604Z,1022.74
2018-05-11T15:42:48.946Z,1022.73
2018-05-11T15:44:16.651Z,1022.72
2018-05-11T15:45:44.090Z,1022.72
2018-05-11T15:47:11.643Z,1022.70
2018-05-11T15:48:39.163Z,1022.69
2018-05-11T15:50:06.528Z,1022.65
2018-05-11T15:51:34.193Z,1022.67
2018-05-11T15:53:01.422Z,1022.73
2018-05-11T15:54:28.759Z,1022.73
2018-05-11T15:55:56.232Z,1022.70
2018-05-11T15:57:23.776Z,1022.70
2018-05-11T15:58:51.111Z,1022.67
2018-05-11T16:00:18.516Z,1022.67
2018-05-11T16:01:46.068Z,1022.65
2018-05-11T16:03:13.447Z,1022.64
2018-05-11T16:04:41.072Z,1022.63
2018-05-11T16:06:08.435Z,1022.61
2018-05-11T16:07:35.884Z,1022.58
2018-05-11T16:09:03.222Z,1022.55
2018-05-11T16:10:30.562Z,1022.53
2018-05-11T16:11:57.965Z,1022.52
2018-05-11T16:13:25.502Z,1022.52
2018-05-11T16:14:52.844Z,1022.49
2018-05-11T16:16:20.254Z,1022.50
2018-05-11T16:17:47.596Z,1022.49
2018-05-11T16:19:15.167Z,1022.54
2018-05-11T16:20:42.271Z,1022.52
2018-05-11T16:22:09.841Z,1022.53
2018-05-11T16:23:37.050Z,1022.55
2018-05-11T16:25:04.636Z,1022.54
2018-05-11T16:26:32.112Z,1022.54
2018-05-11T16:27:59.612Z,1022.52
2018-05-11T16:29:26.892Z,1022.50
2018-05-11T16:30:54.243Z,1022.49
2018-05-11T16:32:21.539Z,1022.52
2018-05-11T16:33:48.886Z,1022.50
2018-05-11T16:35:16.317Z,1022.49
2018-05-11T16:36:43.421Z,1022.50
2018-05-11T16:38:10.803Z,1022.51
2018-05-11T16:39:38.267Z,1022.51
2018-05-11T16:41:05.553Z,1022.53
2018-05-11T16:42:33.810Z,1022.54
2018-05-11T16:44:00.210Z,1022.52
2018-05-11T16:45:27.621Z,1022.55
2018-05-11T16:46:55.078Z,1022.53
2018-05-11T16:48:22.456Z,1022.51
2018-05-11T16:49:49.920Z,1022.52
2018-05-11T16:51:17.487Z,1022.51
2018-05-11T16:52:44.808Z,1022.50
2018-05-11T16:54:12.129Z,1022.50
2018-05-11T16:55:39.735Z,1022.48
2018-05-11T16:57:07.125Z,1022.45
2018-05-11T16:58:34.643Z,1022.44
2018-05-11T17:00:01.998Z,1022.45
2018-05-11T17:01:29.580Z,1022.46
2018-05-11T17:02:56.750Z,1022.48
2018-05-11T17:04:24.339Z,1022.46
2018-05-11T17:05:51.839Z,1022.48
2018-05-11T17:07:19.218Z,1022.48
2018-05-11T17:08:46.862Z,1022.46
2018-05-11T17:10:14.260Z,1022.49
2018-05-11T17:11:41.635Z,1022.51
2018-05-11T17:13:09.297Z,1022.52
2018-05-11T17:14:37.250Z,1022.51
2018-05-11T17:16:03.746Z,1022.53
2018-05-11T17:17:31.428Z,1022.52
2018-05-11T17:18:58.758Z,1022.54
2018-05-11T17:20:26.216Z,1022.52
2018-05-11T17:21:53.785Z,1022.56
2018-05-11T17:23:21.101Z,1022.59
2018-05-11T17:24:48.530Z,1022.59
2018-05-11T17:26:16.003Z,1022.58
2018-05-11T17:27:43.421Z,1022.60
2018-05-11T17:29:10.761Z,1022.60
2018-05-11T17:30:38.357Z,1022.61
2018-05-11T17:32:05.857Z,1022.59
2018-05-11T17:33:33.337Z,1022.57
2018-05-11T17:35:00.806Z,1022.59
2018-05-11T17:36:28.114Z,1022.60